Le Mars, IA

8:44 AM CST on February 08, 2016 (GMT -0600)
Le Mars Municipal | | Change Station
CLOSE
Current Station
Airport
Location: Le Mars,
Elevation: 1198 ft
Nearby Weather Stations
Active Advisory: Winter Weather Advisory Active Notice: Public Information Statement

Elev 1198 ft 42.78 °N, 96.19 °W | Updated 9 minutes ago

Light Snow
Light Snow
21 °F
Feels Like 7 °F
N
16
Wind Variable Wind from NNW
Gusts 30 mph

Today
High -- | Low -- °F
--% Chance of Precip.
Yesterday
High -- | Low -- °F
Precip. -- in
Pressure 30.08 in
Visibility 2.0 miles
Clouds Mostly Cloudy 2300 ft
Overcast 3500 ft
Windchill 7 °F
Dew Point 19 °F
Humidity 93%
Rainfall 0.00 in
Snow Depth Not available.
7:31 AM 5:46 PM
Waning Crescent, 0% visible
METAR KLRJ 081435Z AUTO 34014G26KT 2SM -SN BKN023 OVC035 M06/M07 A3008 RMK AO2
Pressure 30.08 in
Visibility 2.0 miles
Clouds Mostly Cloudy 2300 ft
Overcast 3500 ft
Windchill 7 °F
Dew Point 19 °F
Humidity 93%
Rainfall 0.00 in
Snow Depth Not available.
7:31 AM 5:46 PM
Waning Crescent, 0% visible
METAR KLRJ 081435Z AUTO 34014G26KT 2SM -SN BKN023 OVC035 M06/M07 A3008 RMK AO2

10-Day Weather Forecast

Almanac

Astronomy

Feb. 08, 2016 Rise Set
Actual Time
Civil Twilight
Nautical Twilight
Astronomical Twilight
Moon
Length of Visible Light
Length of Day
Tomorrow will be .
, % of the Moon is Illuminated

Today's Extremes

State Highs State Lows

Community

WunderPhotos

Upload Photos

1,891,437 photos uploaded!

WunderBlog® & News

Nearby

Air Quality

  Air Quality AQ Index Pollutant
Not available.

Snow Depth

Station Depth Elevation

Earthquake Activity

City Distance Mag. Time & Date
Minimum magnitude displayed is 2.5.

Coastal Water Temperatures

Place Temperature

Stations

Nearby Weather Stations

Station Location Temp. Windchill Dew Point Humidity Wind Precip. Elev Updated Type
                   

Watches & Warnings

Winter Weather Advisory
Issued: 4:00 AM CST Feb. 8, 2016 – National Weather Service

... Winter Weather Advisory remains in effect until noon CST
today...

* timing... light snow will gradually taper off through the
morning... but areas of blowing snow will continue.

* Accumulations... little additional accumulation is expected
today.

* Wind and visibility... northwest winds of 25 to 35 mph with gusts
to 45 mph will persist this morning. With a half an inch of new
snow in many locations... this will create periods of reduced
visibility and slick driving conditions.

Precautionary/preparedness actions...

A Winter Weather Advisory for blowing snow means that
visibilities will be limited due to strong winds blowing snow
around. Use caution when traveling... especially in open areas.